Airfield :
LOGIN :

Register | Disclaimer

   EN    FR    IT 

 










Legend :    VFR   Marginal VFR   IFR   Intensive IFR   Very Intensive IFR
Visi :
Ceiling :
>= 8 km
>= 3000ft
5 to 8 km
1000 to 3000 ft
1500m to 5 km
500 to 1000 ft
800 to 1500m
200 to 500 ft
< 800m
< 200 ft
Symbols :   Thunderstorms  Fog  Heavy snow  Heavy precipitations  Wind > 20 kt
SIGMETs :     Misc.  Thunderstorms  Icing  Turbulence  Mountain Waves  Volcanic Ashes






- Airport Elevation : 319 ft


EIME - Casement Air Base

CURRENT METAR :
  • 281300Z 22024KT 9999 FEW015 SCT030 BKN120 13/11 Q0987

EXPIRED METARs :
  • 281230Z 22022KT 9999 SCT015 SCT040 BKN080 13/11 Q0988
  • 281200Z 22020G32KT 9999 SCT015 BKN040 BKN080 12/11 Q0989
  • 281130Z 21020KT 9999 -RA FEW016 BKN020 BKN050 12/10 Q0989
  • 281100Z 21016G29KT 9999 -RA SCT005 SCT029 BKN050 11/10 Q0990
  • 281030Z 21018G29KT 9999 -RA FEW010 BKN030 BKN060 11/10 Q0990

TAF TAF EIME
Valid from the 28 at 12:00 until the 28 at 21:00 UTC


281100Z 2812/2821 21020G32KT 9999 FEW013 BKN020
TEMPO 2812/2814 24020G35KT 4000 -RA BKN008
PROB40
TEMPO 2815/2818 5000 -RA BKN013
BECMG 2819/2821 19015G26KT
TEMPO 2819/2821 4000 -RA BKN008



MET'MAP, your aeronautical weather chart ! - Copyright ORBIFLY December 2007 - Disclaimer

ORBIFLY MET'MAP TEAM :

Programming & Development : Alexandra Zaïnal
Concept & original design : Baudouin d'Aumeries
Assistance for programming : Marc-Olivier Méhu
Technical & hardware support : Manuel Goepfert

Contact : metmap@orbifly.com




SOURCES & CREDITS :

   NOAA